KLM62L LFRS-EHAM
Flight info
| Callsign | KLM62L |
|---|---|
| Flight time | 1h 15m |
| Altitude | 28000 |
| Route | ANG UL976 RONAX/N0441F340 UN873 BAZOS DCT BELDI DCT LUMIL DCT BELOB UY873 DENUT |
| Aircraft | A321/M-SDE3FGHIRWY/LB1 |
Departure
| Time | 2026-05-05 18:53 |
|---|---|
| Airport | Nantes Atlantique Airport (LFRS) |
Arrival
| Time | 2026-05-05 20:08 |
|---|---|
| Airport | Amsterdam Airport Schiphol (EHAM) |
| Time | Latitude | Longitude | Altitude | Speed | Heading |
|---|---|---|---|---|---|
| 2026-05-05 18:22 | 47.15628 | -1.60107 | 103 ft | 0 kts | 19° |
| 2026-05-05 18:43 | 47.15616 | -1.60113 | 102 ft | 3 kts | 19° |
| 2026-05-05 18:44 | 47.15599 | -1.60122 | 101 ft | 3 kts | 19° |
| 2026-05-05 18:44 | 47.15581 | -1.60128 | 101 ft | 3 kts | 358° |
| 2026-05-05 18:44 | 47.15562 | -1.60128 | 101 ft | 3 kts | 339° |
| 2026-05-05 18:44 | 47.15550 | -1.60117 | 101 ft | 0 kts | 305° |
| 2026-05-05 18:46 | 47.15560 | -1.60138 | 101 ft | 6 kts | 305° |
| 2026-05-05 18:46 | 47.15585 | -1.60192 | 102 ft | 6 kts | 303° |
| 2026-05-05 18:46 | 47.15609 | -1.60249 | 101 ft | 7 kts | 301° |
| 2026-05-05 18:46 | 47.15635 | -1.60311 | 100 ft | 8 kts | 302° |
| 2026-05-05 18:47 | 47.15675 | -1.60363 | 101 ft | 8 kts | 319° |
| 2026-05-05 18:47 | 47.15715 | -1.60429 | 101 ft | 9 kts | 293° |
| 2026-05-05 18:47 | 47.15690 | -1.60514 | 101 ft | 11 kts | 214° |
| 2026-05-05 18:47 | 47.15630 | -1.60566 | 101 ft | 8 kts | 209° |
| 2026-05-05 18:48 | 47.15589 | -1.60599 | 102 ft | 6 kts | 209° |
| 2026-05-05 18:48 | 47.15524 | -1.60649 | 103 ft | 17 kts | 207° |
| 2026-05-05 18:48 | 47.15381 | -1.60758 | 102 ft | 27 kts | 207° |
| 2026-05-05 18:48 | 47.15216 | -1.60886 | 100 ft | 27 kts | 208° |
| 2026-05-05 18:49 | 47.15050 | -1.61008 | 101 ft | 27 kts | 206° |
| 2026-05-05 18:49 | 47.14888 | -1.61129 | 99 ft | 25 kts | 207° |
| 2026-05-05 18:49 | 47.14734 | -1.61247 | 99 ft | 24 kts | 207° |
| 2026-05-05 18:49 | 47.14586 | -1.61358 | 97 ft | 24 kts | 207° |
| 2026-05-05 18:50 | 47.14444 | -1.61475 | 97 ft | 22 kts | 208° |
| 2026-05-05 18:50 | 47.14319 | -1.61567 | 91 ft | 21 kts | 207° |
| 2026-05-05 18:50 | 47.14205 | -1.61653 | 89 ft | 11 kts | 207° |
| 2026-05-05 18:50 | 47.14156 | -1.61729 | 92 ft | 10 kts | 246° |
| 2026-05-05 18:51 | 47.14142 | -1.61816 | 91 ft | 8 kts | 264° |
| 2026-05-05 18:51 | 47.14151 | -1.61888 | 93 ft | 7 kts | 294° |
| 2026-05-05 18:51 | 47.14187 | -1.61929 | 93 ft | 7 kts | 9° |
| 2026-05-05 18:51 | 47.14210 | -1.61917 | 93 ft | 1 kts | 23° |
| 2026-05-05 18:52 | 47.14292 | -1.61853 | 91 ft | 40 kts | 28° |
| 2026-05-05 18:52 | 47.14746 | -1.61511 | 102 ft | 104 kts | 27° |
| 2026-05-05 18:52 | 47.15550 | -1.60903 | 108 ft | 153 kts | 28° |
| 2026-05-05 18:52 | 47.16516 | -1.60151 | 606 ft | 154 kts | 25° |
| 2026-05-05 18:53 | 47.17548 | -1.59929 | 1218 ft | 156 kts | 343° |
| 2026-05-05 18:53 | 47.18590 | -1.60644 | 1621 ft | 175 kts | 338° |
| 2026-05-05 18:53 | 47.19796 | -1.61231 | 1779 ft | 199 kts | 350° |
| 2026-05-05 18:53 | 47.21254 | -1.61576 | 2013 ft | 223 kts | 354° |
| 2026-05-05 18:54 | 47.22842 | -1.61864 | 2561 ft | 235 kts | 354° |
| 2026-05-05 18:54 | 47.24489 | -1.62163 | 3248 ft | 242 kts | 354° |
| 2026-05-05 18:54 | 47.26187 | -1.62381 | 3938 ft | 248 kts | 4° |
| 2026-05-05 18:54 | 47.27805 | -1.61534 | 4609 ft | 256 kts | 36° |
| 2026-05-05 18:55 | 47.28916 | -1.59461 | 5228 ft | 265 kts | 63° |
| 2026-05-05 18:55 | 47.29613 | -1.56940 | 5963 ft | 269 kts | 63° |
| 2026-05-05 18:55 | 47.30417 | -1.54449 | 6692 ft | 271 kts | 62° |
| 2026-05-05 18:55 | 47.31282 | -1.51960 | 7411 ft | 275 kts | 59° |
| 2026-05-05 18:56 | 47.32171 | -1.49442 | 8104 ft | 279 kts | 60° |
| 2026-05-05 18:56 | 47.33068 | -1.46883 | 8781 ft | 283 kts | 61° |
| 2026-05-05 18:56 | 47.33970 | -1.44279 | 9477 ft | 287 kts | 62° |
| 2026-05-05 18:56 | 47.34878 | -1.41630 | 10081 ft | 293 kts | 62° |
| 2026-05-05 18:57 | 47.35824 | -1.38853 | 10274 ft | 315 kts | 62° |
| 2026-05-05 18:57 | 47.36839 | -1.35859 | 10409 ft | 336 kts | 61° |
| 2026-05-05 18:57 | 47.37895 | -1.32723 | 10847 ft | 345 kts | 62° |
| 2026-05-05 18:57 | 47.38964 | -1.29533 | 11470 ft | 349 kts | 61° |
| 2026-05-05 18:58 | 47.40039 | -1.26307 | 12106 ft | 352 kts | 62° |
| 2026-05-05 18:58 | 47.41123 | -1.23047 | 12735 ft | 356 kts | 63° |
| 2026-05-05 18:58 | 47.42222 | -1.19755 | 13332 ft | 360 kts | 62° |
| 2026-05-05 18:58 | 47.43335 | -1.16425 | 13915 ft | 364 kts | 63° |
| 2026-05-05 18:59 | 47.44460 | -1.13049 | 14496 ft | 367 kts | 63° |
| 2026-05-05 18:59 | 47.45592 | -1.09653 | 15058 ft | 370 kts | 63° |
| 2026-05-05 18:59 | 47.46731 | -1.06232 | 15643 ft | 372 kts | 63° |
| 2026-05-05 18:59 | 47.47875 | -1.02781 | 16204 ft | 376 kts | 63° |
| 2026-05-05 19:00 | 47.49027 | -0.99303 | 16772 ft | 378 kts | 64° |
| 2026-05-05 19:00 | 47.50186 | -0.95795 | 17335 ft | 381 kts | 64° |
| 2026-05-05 19:00 | 47.51353 | -0.92258 | 17885 ft | 384 kts | 64° |
| 2026-05-05 19:00 | 47.52552 | -0.88717 | 18404 ft | 386 kts | 60° |
| 2026-05-05 19:01 | 47.54081 | -0.85450 | 18922 ft | 387 kts | 49° |
| 2026-05-05 19:01 | 47.55981 | -0.82639 | 19476 ft | 386 kts | 39° |
| 2026-05-05 19:01 | 47.58116 | -0.80224 | 20034 ft | 386 kts | 37° |
| 2026-05-05 19:01 | 47.60255 | -0.77832 | 20547 ft | 387 kts | 37° |
| 2026-05-05 19:02 | 47.62402 | -0.75420 | 21081 ft | 387 kts | 37° |
| 2026-05-05 19:02 | 47.64535 | -0.72969 | 21527 ft | 389 kts | 39° |
| 2026-05-05 19:02 | 47.66599 | -0.70363 | 22046 ft | 390 kts | 41° |
| 2026-05-05 19:02 | 47.68611 | -0.67642 | 22507 ft | 392 kts | 43° |
| 2026-05-05 19:03 | 47.70603 | -0.64864 | 22973 ft | 394 kts | 43° |
| 2026-05-05 19:03 | 47.72597 | -0.62067 | 23442 ft | 395 kts | 43° |
| 2026-05-05 19:03 | 47.74606 | -0.59273 | 23836 ft | 396 kts | 43° |
| 2026-05-05 19:03 | 47.76635 | -0.56483 | 24215 ft | 398 kts | 43° |
| 2026-05-05 19:04 | 47.78680 | -0.53699 | 24584 ft | 399 kts | 43° |
| 2026-05-05 19:04 | 47.80736 | -0.50910 | 24946 ft | 401 kts | 43° |
| 2026-05-05 19:04 | 47.82808 | -0.48101 | 25268 ft | 404 kts | 43° |
| 2026-05-05 19:04 | 47.84891 | -0.45278 | 25621 ft | 406 kts | 43° |
| 2026-05-05 19:05 | 47.86981 | -0.42442 | 25986 ft | 407 kts | 43° |
| 2026-05-05 19:05 | 47.89077 | -0.39589 | 26335 ft | 409 kts | 44° |
| 2026-05-05 19:05 | 47.91178 | -0.36723 | 26694 ft | 410 kts | 44° |
| 2026-05-05 19:05 | 47.93286 | -0.33842 | 27043 ft | 412 kts | 44° |
| 2026-05-05 19:06 | 47.95373 | -0.30988 | 27382 ft | 413 kts | 44° |
| 2026-05-05 19:06 | 47.97497 | -0.28084 | 27717 ft | 415 kts | 44° |
| 2026-05-05 19:06 | 47.99627 | -0.25168 | 27871 ft | 413 kts | 44° |
| 2026-05-05 19:06 | 48.01714 | -0.22306 | 27884 ft | 404 kts | 44° |
| 2026-05-05 19:07 | 48.03781 | -0.19462 | 27886 ft | 403 kts | 44° |
| 2026-05-05 19:07 | 48.05840 | -0.16623 | 27896 ft | 403 kts | 44° |
| 2026-05-05 19:07 | 48.07897 | -0.13784 | 27899 ft | 403 kts | 44° |
| 2026-05-05 19:07 | 48.09951 | -0.10946 | 27905 ft | 402 kts | 44° |
| 2026-05-05 19:08 | 48.12008 | -0.08105 | 27897 ft | 402 kts | 44° |
| 2026-05-05 19:08 | 48.14071 | -0.05262 | 27892 ft | 402 kts | 44° |
| 2026-05-05 19:08 | 48.16129 | -0.02424 | 27885 ft | 403 kts | 44° |
| 2026-05-05 19:08 | 48.18185 | 0.00422 | 27888 ft | 402 kts | 44° |
| 2026-05-05 19:09 | 48.20241 | 0.03273 | 27895 ft | 402 kts | 44° |
| 2026-05-05 19:09 | 48.22292 | 0.06123 | 27894 ft | 402 kts | 44° |
| 2026-05-05 19:09 | 48.24342 | 0.08976 | 27878 ft | 402 kts | 44° |
| 2026-05-05 19:09 | 48.26394 | 0.11837 | 27880 ft | 403 kts | 44° |
| 2026-05-05 19:10 | 48.28446 | 0.14700 | 27880 ft | 403 kts | 44° |
| 2026-05-05 19:10 | 48.30500 | 0.17566 | 27872 ft | 403 kts | 44° |
| 2026-05-05 19:10 | 48.32556 | 0.20439 | 27872 ft | 404 kts | 44° |
| 2026-05-05 19:10 | 48.34611 | 0.23313 | 27877 ft | 404 kts | 45° |
| 2026-05-05 19:11 | 48.36667 | 0.26191 | 27892 ft | 404 kts | 45° |
| 2026-05-05 19:11 | 48.38722 | 0.29067 | 27890 ft | 404 kts | 45° |
| 2026-05-05 19:11 | 48.40779 | 0.31949 | 27889 ft | 404 kts | 45° |
| 2026-05-05 19:11 | 48.42835 | 0.34836 | 27878 ft | 404 kts | 45° |
| 2026-05-05 19:12 | 48.44888 | 0.37727 | 27868 ft | 404 kts | 45° |
| 2026-05-05 19:12 | 48.46942 | 0.40623 | 27860 ft | 405 kts | 45° |
| 2026-05-05 19:12 | 48.48999 | 0.43522 | 27868 ft | 405 kts | 44° |
| 2026-05-05 19:12 | 48.51052 | 0.46416 | 27876 ft | 405 kts | 44° |
| 2026-05-05 19:13 | 48.53114 | 0.49322 | 27883 ft | 405 kts | 44° |
| 2026-05-05 19:13 | 48.55168 | 0.52223 | 27880 ft | 405 kts | 44° |
| 2026-05-05 19:13 | 48.57223 | 0.55131 | 27881 ft | 405 kts | 45° |
| 2026-05-05 19:13 | 48.59245 | 0.58002 | 27881 ft | 404 kts | 45° |
| 2026-05-05 19:14 | 48.61291 | 0.60916 | 27876 ft | 404 kts | 45° |
| 2026-05-05 19:14 | 48.63339 | 0.63830 | 27877 ft | 404 kts | 45° |
| 2026-05-05 19:14 | 48.65389 | 0.66744 | 27868 ft | 404 kts | 45° |
| 2026-05-05 19:14 | 48.67440 | 0.69665 | 27855 ft | 405 kts | 45° |
| 2026-05-05 19:15 | 48.69487 | 0.72583 | 27861 ft | 405 kts | 45° |
| 2026-05-05 19:15 | 48.71538 | 0.75510 | 27858 ft | 405 kts | 45° |
| 2026-05-05 19:15 | 48.73588 | 0.78441 | 27866 ft | 405 kts | 45° |
| 2026-05-05 19:15 | 48.75638 | 0.81376 | 27861 ft | 406 kts | 45° |
| 2026-05-05 19:16 | 48.77687 | 0.84315 | 27863 ft | 406 kts | 45° |
| 2026-05-05 19:16 | 48.79738 | 0.87258 | 27856 ft | 406 kts | 45° |
| 2026-05-05 19:16 | 48.81791 | 0.90206 | 27863 ft | 406 kts | 45° |
| 2026-05-05 19:16 | 48.83838 | 0.93151 | 27860 ft | 406 kts | 45° |
| 2026-05-05 19:17 | 48.85886 | 0.96101 | 27857 ft | 406 kts | 45° |
| 2026-05-05 19:17 | 48.87933 | 0.99055 | 27859 ft | 406 kts | 45° |
| 2026-05-05 19:17 | 48.89981 | 1.02010 | 27859 ft | 406 kts | 45° |
| 2026-05-05 19:17 | 48.92030 | 1.04969 | 27861 ft | 406 kts | 45° |
| 2026-05-05 19:18 | 48.94074 | 1.07926 | 27858 ft | 406 kts | 45° |
| 2026-05-05 19:18 | 48.96116 | 1.10886 | 27856 ft | 405 kts | 45° |
| 2026-05-05 19:18 | 48.98158 | 1.13846 | 27855 ft | 405 kts | 45° |
| 2026-05-05 19:18 | 49.00197 | 1.16802 | 27856 ft | 405 kts | 45° |
| 2026-05-05 19:19 | 49.02236 | 1.19764 | 27858 ft | 405 kts | 45° |
| 2026-05-05 19:19 | 49.04273 | 1.22727 | 27852 ft | 405 kts | 45° |
| 2026-05-05 19:19 | 49.06317 | 1.25704 | 27870 ft | 409 kts | 45° |
| 2026-05-05 19:19 | 49.08377 | 1.28703 | 28253 ft | 409 kts | 45° |
| 2026-05-05 19:20 | 49.10431 | 1.31698 | 28722 ft | 408 kts | 45° |
| 2026-05-05 19:20 | 49.12475 | 1.34688 | 29197 ft | 406 kts | 45° |
| 2026-05-05 19:20 | 49.13820 | 1.36660 | 29517 ft | 405 kts | 45° |
| 2026-05-05 19:20 | 49.15845 | 1.39631 | 30008 ft | 402 kts | 46° |
| 2026-05-05 19:21 | 49.17856 | 1.42584 | 30416 ft | 400 kts | 46° |
| 2026-05-05 19:21 | 49.19855 | 1.45520 | 30833 ft | 397 kts | 46° |
| 2026-05-05 19:21 | 49.21839 | 1.48435 | 31258 ft | 394 kts | 46° |
| 2026-05-05 19:21 | 49.23809 | 1.51330 | 31702 ft | 391 kts | 45° |
| 2026-05-05 19:22 | 49.25881 | 1.54020 | 32047 ft | 392 kts | 41° |
| 2026-05-05 19:22 | 49.28016 | 1.56623 | 32313 ft | 393 kts | 41° |
| 2026-05-05 19:22 | 49.30174 | 1.59194 | 32587 ft | 394 kts | 40° |
| 2026-05-05 19:22 | 49.32346 | 1.61761 | 32841 ft | 394 kts | 40° |
| 2026-05-05 19:23 | 49.34518 | 1.64327 | 33114 ft | 395 kts | 40° |
| 2026-05-05 19:23 | 49.36690 | 1.66903 | 33397 ft | 395 kts | 41° |
| 2026-05-05 19:23 | 49.38860 | 1.69492 | 33684 ft | 395 kts | 41° |
| 2026-05-05 19:23 | 49.41027 | 1.72095 | 33833 ft | 398 kts | 41° |
| 2026-05-05 19:24 | 49.45448 | 1.77439 | 33873 ft | 411 kts | 41° |
| 2026-05-05 19:24 | 49.50019 | 1.82963 | 33868 ft | 425 kts | 41° |
| 2026-05-05 19:25 | 49.54728 | 1.88657 | 33868 ft | 435 kts | 41° |
| 2026-05-05 19:25 | 49.59455 | 1.94392 | 33872 ft | 436 kts | 41° |
| 2026-05-05 19:26 | 49.64219 | 2.00182 | 33870 ft | 436 kts | 41° |
| 2026-05-05 19:26 | 49.68977 | 2.05986 | 33868 ft | 436 kts | 41° |
| 2026-05-05 19:27 | 49.73732 | 2.11802 | 33865 ft | 436 kts | 41° |
| 2026-05-05 19:27 | 49.78487 | 2.17631 | 33860 ft | 436 kts | 41° |
| 2026-05-05 19:28 | 49.83245 | 2.23477 | 33861 ft | 437 kts | 41° |
| 2026-05-05 19:28 | 49.87999 | 2.29335 | 33863 ft | 437 kts | 42° |
| 2026-05-05 19:29 | 49.92748 | 2.35203 | 33864 ft | 436 kts | 42° |
| 2026-05-05 19:29 | 49.97496 | 2.41080 | 33854 ft | 436 kts | 42° |
| 2026-05-05 19:30 | 50.02243 | 2.46971 | 33858 ft | 437 kts | 42° |
| 2026-05-05 19:30 | 50.06987 | 2.52880 | 33854 ft | 437 kts | 42° |
| 2026-05-05 19:31 | 50.11697 | 2.58763 | 33860 ft | 437 kts | 42° |
| 2026-05-05 19:31 | 50.16438 | 2.64702 | 33859 ft | 437 kts | 42° |
| 2026-05-05 19:32 | 50.21179 | 2.70655 | 33847 ft | 438 kts | 42° |
| 2026-05-05 19:32 | 50.25932 | 2.76628 | 33844 ft | 439 kts | 42° |
| 2026-05-05 19:33 | 50.30681 | 2.82626 | 33854 ft | 439 kts | 42° |
| 2026-05-05 19:33 | 50.35432 | 2.88639 | 33856 ft | 439 kts | 42° |
| 2026-05-05 19:34 | 50.40185 | 2.94661 | 33850 ft | 439 kts | 42° |
| 2026-05-05 19:35 | 50.48108 | 3.02100 | 33728 ft | 446 kts | 31° |
| 2026-05-05 19:35 | 50.50845 | 3.04402 | 33436 ft | 447 kts | 31° |
| 2026-05-05 19:35 | 50.53585 | 3.06714 | 33168 ft | 447 kts | 31° |
| 2026-05-05 19:35 | 50.56319 | 3.09024 | 32849 ft | 445 kts | 31° |
| 2026-05-05 19:36 | 50.59037 | 3.11322 | 32272 ft | 442 kts | 31° |
| 2026-05-05 19:36 | 50.61704 | 3.13577 | 31735 ft | 439 kts | 31° |
| 2026-05-05 19:36 | 50.64388 | 3.15852 | 31181 ft | 437 kts | 31° |
| 2026-05-05 19:36 | 50.67058 | 3.18120 | 30647 ft | 435 kts | 31° |
| 2026-05-05 19:37 | 50.69713 | 3.20378 | 30123 ft | 432 kts | 31° |
| 2026-05-05 19:37 | 50.72344 | 3.22616 | 29876 ft | 428 kts | 30° |
| 2026-05-05 19:37 | 50.74969 | 3.24822 | 29691 ft | 426 kts | 30° |
| 2026-05-05 19:37 | 50.77614 | 3.27022 | 28766 ft | 432 kts | 30° |
| 2026-05-05 19:38 | 50.80249 | 3.29205 | 28453 ft | 423 kts | 30° |
| 2026-05-05 19:38 | 50.82840 | 3.31354 | 28178 ft | 418 kts | 30° |
| 2026-05-05 19:38 | 50.85409 | 3.33493 | 27905 ft | 417 kts | 30° |
| 2026-05-05 19:38 | 50.87973 | 3.35638 | 27636 ft | 416 kts | 30° |
| 2026-05-05 19:39 | 50.90522 | 3.37780 | 27370 ft | 414 kts | 30° |
| 2026-05-05 19:39 | 50.93063 | 3.39918 | 27104 ft | 413 kts | 30° |
| 2026-05-05 19:39 | 50.95594 | 3.42046 | 26844 ft | 411 kts | 29° |
| 2026-05-05 19:39 | 50.98114 | 3.44163 | 26585 ft | 409 kts | 30° |
| 2026-05-05 19:40 | 51.00627 | 3.46276 | 26330 ft | 408 kts | 29° |
| 2026-05-05 19:40 | 51.03127 | 3.48379 | 26124 ft | 405 kts | 30° |
| 2026-05-05 19:40 | 51.05625 | 3.50483 | 25929 ft | 406 kts | 29° |
| 2026-05-05 19:40 | 51.08105 | 3.52581 | 25640 ft | 403 kts | 29° |
| 2026-05-05 19:41 | 51.10579 | 3.54677 | 25367 ft | 402 kts | 29° |
| 2026-05-05 19:41 | 51.13039 | 3.56763 | 25089 ft | 399 kts | 29° |
| 2026-05-05 19:41 | 51.15489 | 3.58842 | 24810 ft | 399 kts | 29° |
| 2026-05-05 19:41 | 51.17928 | 3.60913 | 24539 ft | 396 kts | 28° |
| 2026-05-05 19:42 | 51.20353 | 3.62975 | 24249 ft | 394 kts | 28° |
| 2026-05-05 19:42 | 51.22875 | 3.64649 | 23977 ft | 392 kts | 17° |
| 2026-05-05 19:42 | 51.25530 | 3.65539 | 23616 ft | 391 kts | 6° |
| 2026-05-05 19:42 | 51.28243 | 3.65646 | 23107 ft | 388 kts | 358° |
| 2026-05-05 19:43 | 51.30932 | 3.65539 | 22675 ft | 385 kts | 358° |
| 2026-05-05 19:43 | 51.33602 | 3.65446 | 22237 ft | 383 kts | 358° |
| 2026-05-05 19:43 | 51.36261 | 3.65363 | 21805 ft | 381 kts | 358° |
| 2026-05-05 19:43 | 51.38898 | 3.65286 | 21377 ft | 378 kts | 359° |
| 2026-05-05 19:44 | 51.41516 | 3.65212 | 20951 ft | 375 kts | 359° |
| 2026-05-05 19:44 | 51.44116 | 3.65137 | 20528 ft | 372 kts | 359° |
| 2026-05-05 19:44 | 51.46697 | 3.65061 | 20107 ft | 369 kts | 359° |
| 2026-05-05 19:44 | 51.49255 | 3.64984 | 19700 ft | 367 kts | 0° |
| 2026-05-05 19:45 | 51.51799 | 3.64906 | 19283 ft | 364 kts | 0° |
| 2026-05-05 19:45 | 51.54319 | 3.64828 | 18875 ft | 361 kts | 359° |
| 2026-05-05 19:45 | 51.56821 | 3.64749 | 18470 ft | 358 kts | 0° |
| 2026-05-05 19:45 | 51.59294 | 3.64669 | 18045 ft | 355 kts | 0° |
| 2026-05-05 19:46 | 51.61748 | 3.64591 | 17628 ft | 350 kts | 0° |
| 2026-05-05 19:46 | 51.64173 | 3.64519 | 17227 ft | 346 kts | 0° |
| 2026-05-05 19:46 | 51.66538 | 3.64450 | 16847 ft | 343 kts | 1° |
| 2026-05-05 19:46 | 51.68897 | 3.64760 | 16461 ft | 339 kts | 13° |
| 2026-05-05 19:47 | 51.71114 | 3.65985 | 16084 ft | 336 kts | 27° |
| 2026-05-05 19:47 | 51.73051 | 3.68033 | 15699 ft | 332 kts | 41° |
| 2026-05-05 19:47 | 51.74611 | 3.70752 | 15312 ft | 330 kts | 55° |
| 2026-05-05 19:47 | 51.75853 | 3.73861 | 14941 ft | 330 kts | 57° |
| 2026-05-05 19:48 | 51.77083 | 3.76992 | 14559 ft | 330 kts | 57° |
| 2026-05-05 19:48 | 51.78311 | 3.80113 | 14181 ft | 329 kts | 57° |
| 2026-05-05 19:48 | 51.79535 | 3.83222 | 13806 ft | 327 kts | 57° |
| 2026-05-05 19:48 | 51.80751 | 3.86315 | 13402 ft | 326 kts | 57° |
| 2026-05-05 19:49 | 51.81960 | 3.89393 | 13026 ft | 323 kts | 57° |
| 2026-05-05 19:49 | 51.82755 | 3.91418 | 12781 ft | 321 kts | 57° |
| 2026-05-05 19:49 | 51.84346 | 3.95479 | 12294 ft | 319 kts | 57° |
| 2026-05-05 19:49 | 51.85526 | 3.98496 | 11922 ft | 316 kts | 57° |
| 2026-05-05 19:50 | 51.86694 | 4.01492 | 11638 ft | 311 kts | 57° |
| 2026-05-05 19:50 | 51.87826 | 4.04394 | 11508 ft | 300 kts | 57° |
| 2026-05-05 19:50 | 51.88922 | 4.07202 | 11315 ft | 292 kts | 57° |
| 2026-05-05 19:50 | 51.90166 | 4.09761 | 10955 ft | 288 kts | 42° |
| 2026-05-05 19:51 | 51.91789 | 4.11621 | 10597 ft | 286 kts | 25° |
| 2026-05-05 19:51 | 51.93656 | 4.12651 | 10231 ft | 284 kts | 9° |
| 2026-05-05 19:51 | 51.95620 | 4.12783 | 10008 ft | 284 kts | 355° |
| 2026-05-05 19:51 | 51.97591 | 4.12554 | 9808 ft | 285 kts | 356° |
| 2026-05-05 19:52 | 51.99568 | 4.12338 | 9419 ft | 283 kts | 356° |
| 2026-05-05 19:52 | 52.01503 | 4.12134 | 9035 ft | 281 kts | 356° |
| 2026-05-05 19:52 | 52.03471 | 4.11930 | 8675 ft | 279 kts | 356° |
| 2026-05-05 19:52 | 52.05370 | 4.11769 | 8343 ft | 276 kts | 1° |
| 2026-05-05 19:53 | 52.07252 | 4.12220 | 7986 ft | 272 kts | 16° |
| 2026-05-05 19:53 | 52.08996 | 4.13386 | 7654 ft | 271 kts | 25° |
| 2026-05-05 19:53 | 52.10701 | 4.14689 | 7331 ft | 270 kts | 25° |
| 2026-05-05 19:53 | 52.12396 | 4.15976 | 7016 ft | 267 kts | 24° |
| 2026-05-05 19:54 | 52.14076 | 4.17252 | 6685 ft | 266 kts | 25° |
| 2026-05-05 19:54 | 52.15750 | 4.18527 | 6366 ft | 265 kts | 25° |
| 2026-05-05 19:54 | 52.17410 | 4.19789 | 6021 ft | 262 kts | 25° |
| 2026-05-05 19:54 | 52.19026 | 4.21112 | 5695 ft | 258 kts | 33° |
| 2026-05-05 19:55 | 52.20364 | 4.23035 | 5397 ft | 257 kts | 50° |
| 2026-05-05 19:55 | 52.21289 | 4.25508 | 5091 ft | 255 kts | 65° |
| 2026-05-05 19:55 | 52.21884 | 4.28210 | 4808 ft | 251 kts | 73° |
| 2026-05-05 19:55 | 52.22014 | 4.30988 | 4677 ft | 243 kts | 91° |
| 2026-05-05 19:56 | 52.21867 | 4.33675 | 4545 ft | 233 kts | 91° |
| 2026-05-05 19:56 | 52.21723 | 4.36268 | 4400 ft | 228 kts | 91° |
| 2026-05-05 19:56 | 52.21582 | 4.38816 | 4302 ft | 220 kts | 91° |
| 2026-05-05 19:56 | 52.21433 | 4.41228 | 4157 ft | 210 kts | 95° |
| 2026-05-05 19:57 | 52.20807 | 4.43380 | 3985 ft | 217 kts | 129° |
| 2026-05-05 19:57 | 52.20037 | 4.44437 | 3892 ft | 220 kts | 139° |
| 2026-05-05 19:57 | 52.18368 | 4.46329 | 3696 ft | 212 kts | 136° |
| 2026-05-05 19:57 | 52.17627 | 4.48144 | 3554 ft | 185 kts | 99° |
| 2026-05-05 19:58 | 52.17754 | 4.50064 | 3392 ft | 165 kts | 62° |
| 2026-05-05 19:58 | 52.18338 | 4.51561 | 3422 ft | 148 kts | 53° |
| 2026-05-05 19:58 | 52.19087 | 4.52703 | 3675 ft | 151 kts | 22° |
| 2026-05-05 19:58 | 52.20136 | 4.52635 | 3942 ft | 160 kts | 339° |
| 2026-05-05 19:59 | 52.20934 | 4.51331 | 4019 ft | 168 kts | 309° |
| 2026-05-05 19:59 | 52.21548 | 4.49523 | 4050 ft | 198 kts | 303° |
| 2026-05-05 19:59 | 52.22126 | 4.47344 | 4045 ft | 219 kts | 289° |
| 2026-05-05 19:59 | 52.22407 | 4.44885 | 4036 ft | 222 kts | 283° |
| 2026-05-05 20:00 | 52.22530 | 4.42363 | 4025 ft | 227 kts | 266° |
| 2026-05-05 20:00 | 52.21923 | 4.39970 | 4041 ft | 233 kts | 238° |
| 2026-05-05 20:00 | 52.20945 | 4.37841 | 4039 ft | 234 kts | 232° |
| 2026-05-05 20:00 | 52.19671 | 4.36246 | 4029 ft | 232 kts | 199° |
| 2026-05-05 20:01 | 52.18104 | 4.35972 | 4033 ft | 226 kts | 169° |
| 2026-05-05 20:01 | 52.16718 | 4.36969 | 4027 ft | 217 kts | 134° |
| 2026-05-05 20:01 | 52.15964 | 4.38986 | 4030 ft | 208 kts | 101° |
| 2026-05-05 20:01 | 52.15741 | 4.41301 | 4029 ft | 204 kts | 86° |
| 2026-05-05 20:02 | 52.16197 | 4.43238 | 4020 ft | 175 kts | 41° |
| 2026-05-05 20:02 | 52.17205 | 4.44111 | 4010 ft | 157 kts | 27° |
| 2026-05-05 20:02 | 52.17899 | 4.45370 | 4037 ft | 153 kts | 65° |
| 2026-05-05 20:02 | 52.18418 | 4.46869 | 3880 ft | 150 kts | 51° |
| 2026-05-05 20:03 | 52.19003 | 4.48216 | 3682 ft | 143 kts | 54° |
| 2026-05-05 20:03 | 52.19549 | 4.49562 | 3504 ft | 143 kts | 55° |
| 2026-05-05 20:03 | 52.20101 | 4.50953 | 3312 ft | 147 kts | 54° |
| 2026-05-05 20:03 | 52.20651 | 4.52359 | 3108 ft | 148 kts | 54° |
| 2026-05-05 20:04 | 52.21192 | 4.53748 | 2897 ft | 147 kts | 55° |
| 2026-05-05 20:04 | 52.21736 | 4.55149 | 2691 ft | 146 kts | 55° |
| 2026-05-05 20:04 | 52.22277 | 4.56543 | 2490 ft | 145 kts | 54° |
| 2026-05-05 20:04 | 52.22814 | 4.57929 | 2291 ft | 145 kts | 55° |
| 2026-05-05 20:05 | 52.23352 | 4.59319 | 2098 ft | 144 kts | 55° |
| 2026-05-05 20:05 | 52.23886 | 4.60699 | 1892 ft | 144 kts | 55° |
| 2026-05-05 20:05 | 52.24420 | 4.62080 | 1698 ft | 143 kts | 55° |
| 2026-05-05 20:05 | 52.24952 | 4.63456 | 1487 ft | 143 kts | 55° |
| 2026-05-05 20:06 | 52.25481 | 4.64826 | 1298 ft | 142 kts | 55° |
| 2026-05-05 20:06 | 52.26011 | 4.66197 | 1102 ft | 143 kts | 55° |
| 2026-05-05 20:06 | 52.26540 | 4.67569 | 900 ft | 144 kts | 54° |
| 2026-05-05 20:06 | 52.27072 | 4.68948 | 700 ft | 144 kts | 55° |
| 2026-05-05 20:07 | 52.27601 | 4.70345 | 557 ft | 145 kts | 54° |
| 2026-05-05 20:07 | 52.28145 | 4.71755 | 333 ft | 145 kts | 54° |
| 2026-05-05 20:07 | 52.28684 | 4.73129 | 118 ft | 145 kts | 55° |
| 2026-05-05 20:07 | 52.29207 | 4.74508 | 4 ft | 133 kts | 55° |
| 2026-05-05 20:08 | 52.29635 | 4.75601 | -1 ft | 91 kts | 57° |
| 2026-05-05 20:08 | 52.29881 | 4.76244 | -6 ft | 48 kts | 57° |
| 2026-05-05 20:08 | 52.29991 | 4.76497 | -3 ft | 30 kts | 40° |
| 2026-05-05 20:08 | 52.30146 | 4.76644 | -2 ft | 22 kts | 27° |
| 2026-05-05 20:09 | 52.30280 | 4.76757 | -3 ft | 19 kts | 30° |
| 2026-05-05 20:09 | 52.30366 | 4.76970 | -3 ft | 17 kts | 59° |
| 2026-05-05 20:09 | 52.30428 | 4.77127 | -3 ft | 16 kts | 57° |
| 2026-05-05 20:09 | 52.30487 | 4.77276 | -3 ft | 15 kts | 58° |
| 2026-05-05 20:10 | 52.30524 | 4.77369 | -2 ft | 9 kts | 47° |
| 2026-05-05 20:10 | 52.30558 | 4.77341 | -3 ft | 10 kts | 319° |
| 2026-05-05 20:10 | 52.30626 | 4.77243 | -2 ft | 12 kts | 317° |
| 2026-05-05 20:10 | 52.30643 | 4.77131 | -2 ft | 10 kts | 276° |
| 2026-05-05 20:11 | 52.30649 | 4.77026 | -2 ft | 9 kts | 275° |
| 2026-05-05 20:11 | 52.30654 | 4.76933 | -2 ft | 8 kts | 275° |
| 2026-05-05 20:11 | 52.30669 | 4.76863 | -2 ft | 6 kts | 316° |
| 2026-05-05 20:11 | 52.30698 | 4.76847 | -2 ft | 4 kts | 26° |
| 2026-05-05 20:12 | 52.30719 | 4.76866 | -2 ft | 1 kts | 28° |
| 2026-05-05 20:12 | 52.30722 | 4.76870 | -2 ft | 1 kts | 35° |
| 2026-05-05 20:12 | 52.30730 | 4.76879 | -2 ft | 0 kts | 34° |
| 2026-05-05 20:12 | 52.30743 | 4.76893 | -2 ft | 3 kts | 34° |
| 2026-05-05 20:13 | 52.30744 | 4.76895 | -2 ft | 0 kts | 34° |
| 2026-05-05 20:14 | 52.30745 | 4.76895 | -2 ft | 0 kts | 37° |